Time;durP1;ratioP1;P1;durP2;ratioP2;P2;SDS_P1;SDS_P2;PMS_P1;PMS_P2;Temp;Humidity;BMP_temperature;BMP_pressure;BME280_temperature;BME280_humidity;BME280_pressure;Samples;Min_cycle;Max_cycle;Signal;HPM_P1;HPM_P2
2021/11/02 00:09:48;;;;;;;0.80;0.80;;;23.30;61.00;;;;;;31383817;28;20041;-41
2021/11/02 00:39:56;;;;;;;1.38;0.35;;;23.30;61.40;;;;;;31315559;28;20105;-38
2021/11/02 00:54:58;;;;;;;0.60;0.20;;;23.10;61.70;;;;;;31378098;28;20053;-39
2021/11/02 01:10:01;;;;;;;0.43;0.30;;;23.10;61.70;;;;;;31376562;28;20054;-38
2021/11/02 01:25:05;;;;;;;0.20;0.20;;;23.00;61.80;;;;;;31375331;28;20072;-38
2021/11/02 01:40:10;;;;;;;0.50;0.25;;;23.00;61.70;;;;;;31404855;28;20069;-44
2021/11/02 01:55:14;;;;;;;7.28;5.70;;;22.90;61.70;;;;;;31411776;28;20096;-38
2021/11/02 02:10:28;;;;;;;4.63;2.10;;;22.90;61.60;;;;;;31371673;28;20049;-44
2021/11/02 02:26:05;;;;;;;1.95;1.70;;;23.10;61.90;;;;;;31370653;28;20041;-39
2021/11/02 02:41:09;;;;;;;1.42;1.17;;;23.40;62.30;;;;;;31384095;28;20209;-47
2021/11/02 02:56:12;;;;;;;1.58;1.48;;;23.40;61.40;;;;;;31499276;28;20101;-40
2021/11/02 03:11:16;;;;;;;1.10;1.00;;;23.40;61.30;;;;;;31391405;28;20053;-48
2021/11/02 03:57:13;;;;;;;1.25;1.15;;;23.00;61.50;;;;;;31384681;28;20057;-45
2021/11/02 05:59:41;;;;;;;12.32;2.47;;;23.30;62.20;;;;;;31370017;28;20109;-44
2021/11/02 06:30:07;;;;;;;11.63;6.15;;;23.00;60.20;;;;;;31389518;28;20092;-45
2021/11/02 08:48:28;;;;;;;6.43;4.57;;;22.70;56.70;;;;;;31375297;28;20060;-38
2021/11/02 09:03:34;;;;;;;4.45;3.85;;;23.00;58.20;;;;;;31377440;28;20183;-38
2021/11/02 09:18:36;;;;;;;3.35;2.88;;;23.40;57.40;;;;;;31374805;28;20069;-43
2021/11/02 09:33:38;;;;;;;2.28;1.67;;;23.40;58.10;;;;;;31374046;28;20045;-38
2021/11/02 09:49:11;;;;;;;1.45;1.35;;;23.40;58.50;;;;;;31372209;28;20084;-38
2021/11/02 10:04:36;;;;;;;0.80;0.80;;;23.40;58.60;;;;;;31370376;28;20042;-43
2021/11/02 10:20:08;;;;;;;0.60;0.60;;;23.40;59.10;;;;;;31370025;28;20042;-45
2021/11/02 10:35:26;;;;;;;0.40;0.40;;;23.40;59.40;;;;;;31360357;28;20112;-41
2021/11/02 10:50:37;;;;;;;0.63;0.35;;;23.40;59.40;;;;;;31368230;28;20116;-36
2021/11/02 11:05:42;;;;;;;2.30;0.35;;;23.30;59.90;;;;;;31371928;28;20045;-38
2021/11/02 11:20:48;;;;;;;0.20;0.20;;;23.30;60.00;;;;;;31391350;28;20065;-47
2021/11/02 11:35:55;;;;;;;55.88;32.47;;;23.30;60.00;;;;;;31354417;28;20128;-41
2021/11/02 11:51:00;;;;;;;12.57;7.68;;;22.90;58.90;;;;;;31304901;28;20137;-41
2021/11/02 12:06:21;;;;;;;10.70;8.18;;;22.90;61.10;;;;;;31375207;28;20074;-42
2021/11/02 12:21:26;;;;;;;10.60;8.68;;;22.80;60.70;;;;;;31364743;28;20052;-35
2021/11/02 12:36:28;;;;;;;14.07;10.38;;;22.70;60.30;;;;;;31377231;28;20050;-36
2021/11/02 12:51:34;;;;;;;10.20;8.82;;;22.60;60.30;;;;;;31381720;28;20046;-36
2021/11/02 13:06:48;;;;;;;12.40;8.30;;;22.50;60.40;;;;;;31377535;28;20045;-44
2021/11/02 13:21:50;;;;;;;6.45;4.82;;;22.50;59.50;;;;;;31374782;28;20138;-42
2021/11/02 13:37:05;;;;;;;4.13;3.60;;;22.70;58.70;;;;;;31373452;28;20057;-44
2021/11/02 13:52:10;;;;;;;3.00;2.65;;;23.20;58.10;;;;;;31388982;28;20510;-42
2021/11/02 14:07:21;;;;;;;6.60;5.20;;;23.50;57.50;;;;;;31432981;28;20069;-46
2021/11/02 14:22:44;;;;;;;5.18;2.75;;;23.40;56.70;;;;;;31369706;28;20113;-37
2021/11/02 14:37:52;;;;;;;2.50;2.30;;;23.30;57.80;;;;;;31368897;28;20057;-37
2021/11/02 14:53:09;;;;;;;5.93;3.05;;;23.20;57.80;;;;;;31461232;28;20052;-42
2021/11/02 15:08:13;;;;;;;6.90;3.92;;;23.20;58.50;;;;;;31429578;28;20093;-40
2021/11/02 15:23:16;;;;;;;8.10;3.72;;;23.10;59.00;;;;;;31381423;28;20065;-37
2021/11/02 15:38:26;;;;;;;5.57;4.00;;;23.00;59.30;;;;;;31386280;28;20057;-37
2021/11/02 15:53:29;;;;;;;3.40;2.10;;;22.90;59.60;;;;;;31396117;28;20045;-39
2021/11/02 16:08:31;;;;;;;5.18;2.50;;;22.90;59.60;;;;;;31383983;28;20129;-38
2021/11/02 16:23:51;;;;;;;2.47;2.05;;;23.30;60.20;;;;;;31383498;28;20091;-38
2021/11/02 16:38:56;;;;;;;3.22;2.08;;;23.50;59.90;;;;;;31380286;28;20057;-40
2021/11/02 16:54:09;;;;;;;2.67;1.90;;;23.50;60.20;;;;;;31378811;28;20041;-42
2021/11/02 17:09:13;;;;;;;12.23;5.85;;;23.50;60.40;;;;;;31345621;28;20092;-38
2021/11/02 17:24:15;;;;;;;11.68;6.82;;;23.40;61.10;;;;;;31443289;28;20038;-37
2021/11/02 17:39:19;;;;;;;15.50;7.57;;;23.30;61.50;;;;;;31373642;28;20110;-37
2021/11/02 17:54:24;;;;;;;14.60;8.07;;;23.30;61.80;;;;;;31372365;28;20048;-38
2021/11/02 18:09:26;;;;;;;9.32;6.35;;;23.20;62.30;;;;;;31017428;28;10000240;-39
2021/11/02 18:24:33;;;;;;;8.00;3.85;;;23.00;62.60;;;;;;31373801;28;20037;-36
2021/11/02 18:39:36;;;;;;;9.95;5.40;;;23.20;62.30;;;;;;31383726;28;20072;-40
2021/11/02 18:54:38;;;;;;;7.75;5.35;;;23.00;62.40;;;;;;31382999;28;20937;-39
2021/11/02 19:09:40;;;;;;;9.02;3.78;;;22.90;62.90;;;;;;31380279;28;20045;-35
2021/11/02 19:24:42;;;;;;;4.22;2.45;;;22.90;63.10;;;;;;31387320;28;20044;-38
2021/11/02 19:39:44;;;;;;;2.80;1.90;;;22.90;62.90;;;;;;31395988;28;20092;-37
2021/11/02 19:54:46;;;;;;;9.65;3.90;;;23.10;62.00;;;;;;31385798;28;20061;-38
2021/11/02 20:09:53;;;;;;;3.55;2.63;;;23.00;61.20;;;;;;31382630;28;20061;-37
2021/11/02 20:24:57;;;;;;;2.65;1.58;;;22.70;62.00;;;;;;31387061;28;20120;-38
2021/11/02 20:40:06;;;;;;;1.20;0.82;;;22.90;61.80;;;;;;31378467;28;20080;-38
2021/11/02 20:55:09;;;;;;;0.83;0.50;;;23.00;61.60;;;;;;31377700;28;20065;-38
2021/11/02 21:10:14;;;;;;;0.55;0.55;;;23.10;61.70;;;;;;31376172;28;20049;-37
2021/11/02 21:25:31;;;;;;;0.20;0.20;;;23.20;61.80;;;;;;31374796;28;20060;-36
2021/11/02 21:40:33;;;;;;;3.70;2.95;;;23.20;61.80;;;;;;31374042;28;20069;-36
2021/11/02 21:55:37;;;;;;;27.77;23.17;;;23.10;61.00;;;;;;31370614;28;20095;-39
2021/11/02 22:10:40;;;;;;;34.10;28.38;;;22.70;57.20;;;;;;31368753;28;20132;-40
2021/11/02 22:25:42;;;;;;;39.30;31.10;;;22.60;55.60;;;;;;31369975;28;20101;-38
2021/11/02 22:40:45;;;;;;;33.88;28.35;;;22.50;54.90;;;;;;31368277;28;20073;-38
2021/11/02 22:55:47;;;;;;;30.10;25.98;;;22.70;56.20;;;;;;31368506;28;20045;-43
2021/11/02 23:10:51;;;;;;;32.00;25.15;;;23.20;54.60;;;;;;31380918;28;20585;-36
2021/11/02 23:25:58;;;;;;;30.40;25.23;;;23.30;54.90;;;;;;31389230;28;20079;-37
2021/11/02 23:41:00;;;;;;;36.92;26.25;;;23.20;55.30;;;;;;31396064;28;20137;-38
2021/11/02 23:56:03;;;;;;;29.98;22.27;;;23.10;54.90;;;;;;31387305;28;20049;-38
